createdAt,value
2022-09-26T00:01:12.197Z,13.68
2022-09-26T00:03:39.012Z,13.66
2022-09-26T00:06:09.035Z,13.67
2022-09-26T00:08:37.156Z,13.68
2022-09-26T00:11:06.009Z,13.70
2022-09-26T00:13:34.452Z,13.68
2022-09-26T00:16:01.124Z,13.67
2022-09-26T00:18:27.607Z,13.66
2022-09-26T00:20:54.159Z,13.69
2022-09-26T00:23:20.625Z,13.68
2022-09-26T00:25:51.625Z,13.69
2022-09-26T00:28:18.981Z,13.69
2022-09-26T00:30:45.543Z,13.69
2022-09-26T00:33:12.221Z,13.56
2022-09-26T00:35:39.311Z,13.66
2022-09-26T00:38:05.921Z,13.66
2022-09-26T00:40:35.503Z,13.63
2022-09-26T00:43:02.069Z,13.61
2022-09-26T00:45:30.921Z,13.57
2022-09-26T00:48:02.118Z,13.60
2022-09-26T00:50:39.303Z,13.59
2022-09-26T00:53:12.728Z,13.54
2022-09-26T00:55:45.141Z,13.57
2022-09-26T00:58:38.936Z,13.55
2022-09-26T01:01:06.813Z,13.40
2022-09-26T01:03:37.107Z,13.56
2022-09-26T01:06:04.033Z,13.58
2022-09-26T01:08:40.193Z,13.54
2022-09-26T01:11:11.596Z,13.53
2022-09-26T01:13:42.913Z,13.40
2022-09-26T01:16:09.593Z,13.52
2022-09-26T01:18:36.726Z,13.54
2022-09-26T01:21:18.357Z,13.51
2022-09-26T01:24:09.907Z,13.52
2022-09-26T01:26:55.129Z,13.50
2022-09-26T01:30:03.745Z,13.48
2022-09-26T01:32:54.031Z,13.44
2022-09-26T01:35:39.117Z,13.45
2022-09-26T01:38:24.588Z,13.43
2022-09-26T01:41:16.114Z,13.44
2022-09-26T01:44:25.199Z,13.44
2022-09-26T01:46:56.787Z,13.42
2022-09-26T01:49:45.449Z,13.40
2022-09-26T01:52:44.979Z,13.45
2022-09-26T01:55:16.505Z,13.45
2022-09-26T01:58:03.098Z,13.45
2022-09-26T02:00:30.424Z,13.35
2022-09-26T02:02:59.320Z,13.47
2022-09-26T02:05:33.203Z,13.52
2022-09-26T02:08:13.100Z,13.53
2022-09-26T02:10:47.453Z,13.52
2022-09-26T02:13:18.679Z,13.50
2022-09-26T02:15:51.070Z,13.47
2022-09-26T02:18:23.647Z,13.38
2022-09-26T02:20:57.907Z,13.47
2022-09-26T02:23:24.443Z,13.47
2022-09-26T02:25:54.002Z,13.47
2022-09-26T02:28:21.995Z,13.48
2022-09-26T02:30:50.639Z,13.46
2022-09-26T02:33:17.265Z,13.47
2022-09-26T02:35:56.392Z,13.52
2022-09-26T02:38:29.548Z,13.47
2022-09-26T02:41:13.247Z,13.43
2022-09-26T02:43:52.097Z,13.38
2022-09-26T02:46:40.786Z,13.41
2022-09-26T02:49:45.382Z,13.42
2022-09-26T02:52:51.184Z,13.39
2022-09-26T02:55:41.410Z,13.41
2022-09-26T02:58:35.959Z,13.42
2022-09-26T03:01:51.595Z,13.40
2022-09-26T03:04:24.252Z,13.37
2022-09-26T03:06:56.265Z,13.40
2022-09-26T03:09:25.578Z,13.36
2022-09-26T03:11:53.630Z,13.37
2022-09-26T03:14:21.220Z,13.36
2022-09-26T03:16:49.984Z,13.41
2022-09-26T03:19:47.191Z,13.35
2022-09-26T03:22:15.659Z,13.35
2022-09-26T03:24:42.642Z,13.38
2022-09-26T03:27:12.151Z,13.40
2022-09-26T03:29:39.154Z,13.40
2022-09-26T03:32:08.502Z,13.35
2022-09-26T03:34:39.707Z,13.34
2022-09-26T03:37:07.203Z,13.35
2022-09-26T03:39:34.159Z,13.37
2022-09-26T03:42:07.651Z,13.35
2022-09-26T03:44:34.186Z,13.36
2022-09-26T03:47:03.863Z,13.36
2022-09-26T03:49:31.325Z,13.33
2022-09-26T03:51:58.001Z,13.35
2022-09-26T03:54:24.813Z,13.35
2022-09-26T03:56:51.483Z,13.35
2022-09-26T03:59:18.021Z,13.30
2022-09-26T04:01:46.482Z,13.30
2022-09-26T04:04:15.229Z,13.27
2022-09-26T04:06:44.827Z,13.24
2022-09-26T04:09:16.612Z,13.19
2022-09-26T04:11:46.653Z,13.18
2022-09-26T04:14:13.393Z,13.08
2022-09-26T04:16:40.932Z,13.10
2022-09-26T04:19:28.329Z,13.10
2022-09-26T04:21:55.203Z,13.08
2022-09-26T04:24:21.787Z,13.02
2022-09-26T04:26:48.588Z,12.96
2022-09-26T04:29:15.825Z,12.92
2022-09-26T04:32:05.397Z,12.85
2022-09-26T04:34:42.954Z,12.86
2022-09-26T04:37:10.173Z,12.84
2022-09-26T04:39:36.983Z,12.85
2022-09-26T04:42:04.357Z,12.86
2022-09-26T04:44:30.829Z,12.88
2022-09-26T04:46:58.319Z,12.88
2022-09-26T04:49:39.379Z,12.85
2022-09-26T04:52:06.511Z,12.86
2022-09-26T04:54:33.038Z,12.85
2022-09-26T04:57:00.624Z,12.84
2022-09-26T04:59:27.115Z,12.84
2022-09-26T05:01:59.124Z,12.86
2022-09-26T05:04:34.953Z,12.72
2022-09-26T05:07:01.745Z,12.79
2022-09-26T05:09:35.541Z,12.80
2022-09-26T05:12:05.942Z,12.79
2022-09-26T05:14:35.347Z,12.80
2022-09-26T05:17:03.840Z,12.71
2022-09-26T05:19:30.455Z,12.79
2022-09-26T05:22:15.555Z,12.78
2022-09-26T05:25:00.832Z,12.80
2022-09-26T05:27:27.499Z,12.81
2022-09-26T05:29:55.538Z,12.85
2022-09-26T05:32:22.595Z,12.86
2022-09-26T05:34:51.043Z,12.89
2022-09-26T05:37:21.146Z,12.92
2022-09-26T05:40:06.973Z,12.95
2022-09-26T05:42:37.543Z,12.95
2022-09-26T05:45:04.831Z,12.93
2022-09-26T05:47:36.076Z,12.95
2022-09-26T05:50:09.771Z,12.97
2022-09-26T05:52:38.253Z,13.00
2022-09-26T05:55:05.907Z,13.04
2022-09-26T05:57:59.085Z,12.98
2022-09-26T06:00:36.551Z,13.09
2022-09-26T06:03:03.720Z,13.12
2022-09-26T06:05:46.991Z,13.10
2022-09-26T06:08:16.039Z,13.15
2022-09-26T06:10:45.517Z,13.18
2022-09-26T06:13:15.190Z,13.10
2022-09-26T06:15:46.745Z,13.28
2022-09-26T06:18:14.415Z,13.34
2022-09-26T06:20:41.039Z,13.42
2022-09-26T06:23:07.562Z,13.45
2022-09-26T06:25:35.126Z,13.45
2022-09-26T06:28:03.413Z,13.47
2022-09-26T06:30:30.960Z,13.49
2022-09-26T06:33:09.078Z,13.51
2022-09-26T06:36:06.467Z,13.53
2022-09-26T06:38:35.963Z,13.59
2022-09-26T06:41:05.297Z,13.58
2022-09-26T06:43:31.967Z,13.68
2022-09-26T06:46:17.036Z,13.43
2022-09-26T06:48:55.632Z,13.85
2022-09-26T06:51:40.862Z,13.91
2022-09-26T06:54:07.918Z,13.95
2022-09-26T06:56:34.399Z,13.96
2022-09-26T06:59:00.928Z,13.95
2022-09-26T07:01:33.199Z,13.94
2022-09-26T07:04:08.546Z,13.92
2022-09-26T07:06:38.231Z,13.90
2022-09-26T07:09:14.915Z,13.91
2022-09-26T07:12:13.736Z,13.97
2022-09-26T07:14:39.000Z,14.02
2022-09-26T07:17:15.952Z,14.11
2022-09-26T07:20:02.685Z,14.18
2022-09-26T07:22:52.229Z,14.34
2022-09-26T07:25:19.113Z,14.46
2022-09-26T07:27:49.618Z,14.56
2022-09-26T07:30:16.317Z,14.63
2022-09-26T07:33:03.028Z,14.80
2022-09-26T07:35:38.397Z,15.06
2022-09-26T07:38:05.660Z,15.29
2022-09-26T07:40:32.556Z,15.63
2022-09-26T07:43:19.254Z,16.02
2022-09-26T07:46:09.144Z,16.25
2022-09-26T07:48:54.869Z,16.22
2022-09-26T07:51:39.954Z,16.11
2022-09-26T07:54:10.861Z,16.03
2022-09-26T07:57:06.689Z,15.95
2022-09-26T07:59:50.430Z,15.87
2022-09-26T08:02:37.015Z,15.75
2022-09-26T08:05:05.895Z,15.64
2022-09-26T08:07:35.305Z,15.57
2022-09-26T08:10:18.958Z,15.39
2022-09-26T08:13:03.765Z,15.62
2022-09-26T08:15:36.344Z,15.71
2022-09-26T08:18:05.734Z,15.90
2022-09-26T08:20:33.960Z,16.19
2022-09-26T08:23:00.648Z,16.66
2022-09-26T08:25:27.879Z,17.17
2022-09-26T08:28:00.248Z,17.56
2022-09-26T08:30:29.789Z,17.77
2022-09-26T08:33:00.563Z,17.84
2022-09-26T08:35:27.364Z,17.82
2022-09-26T08:37:54.110Z,17.80
2022-09-26T08:40:50.192Z,17.55
2022-09-26T08:44:32.101Z,17.22
2022-09-26T08:47:34.802Z,16.81
2022-09-26T08:50:21.056Z,16.55
2022-09-26T08:52:58.233Z,16.37
2022-09-26T08:55:30.329Z,16.25
2022-09-26T08:58:04.058Z,16.18
2022-09-26T09:00:33.296Z,16.15
2022-09-26T09:03:31.650Z,16.13
2022-09-26T09:06:07.187Z,16.17
2022-09-26T09:08:43.478Z,16.15
2022-09-26T09:12:01.827Z,16.17
2022-09-26T09:14:39.557Z,16.38
2022-09-26T09:18:02.108Z,16.63
2022-09-26T09:20:56.387Z,17.02
2022-09-26T09:24:16.339Z,17.30
2022-09-26T09:29:50.599Z,17.29
2022-09-26T09:33:15.324Z,17.08
2022-09-26T09:35:56.160Z,16.93
2022-09-26T09:38:46.770Z,16.93
2022-09-26T09:41:47.155Z,16.97
2022-09-26T09:44:37.073Z,16.92
2022-09-26T09:47:12.692Z,16.91
2022-09-26T09:49:39.527Z,16.90
2022-09-26T09:52:38.259Z,16.84
2022-09-26T09:55:21.097Z,16.83
2022-09-26T09:58:26.018Z,16.87
2022-09-26T10:01:25.554Z,16.96
2022-09-26T10:04:06.484Z,16.93
2022-09-26T10:06:46.648Z,16.81
2022-09-26T10:09:39.353Z,16.78
2022-09-26T10:12:37.150Z,16.76
2022-09-26T10:15:56.160Z,16.65
2022-09-26T10:19:03.670Z,16.56
2022-09-26T10:21:34.241Z,16.60
2022-09-26T10:24:03.672Z,16.70
2022-09-26T10:26:45.205Z,16.74
2022-09-26T10:29:34.367Z,16.86
2022-09-26T10:32:02.603Z,16.92
2022-09-26T10:34:33.282Z,17.07
2022-09-26T10:37:36.141Z,17.08
2022-09-26T10:40:45.876Z,17.10
2022-09-26T10:43:21.307Z,17.28
2022-09-26T10:45:55.975Z,17.47
2022-09-26T10:48:49.419Z,17.60
2022-09-26T10:51:42.540Z,17.65
2022-09-26T10:54:16.319Z,17.66
2022-09-26T10:56:47.394Z,17.68
2022-09-26T10:59:18.298Z,17.70
2022-09-26T11:01:51.301Z,17.71
2022-09-26T11:04:41.771Z,17.66
2022-09-26T11:07:49.359Z,17.70
2022-09-26T11:10:49.294Z,17.81
2022-09-26T11:13:21.834Z,17.73
2022-09-26T11:16:01.196Z,17.65
2022-09-26T11:18:36.480Z,17.33
2022-09-26T11:21:27.790Z,17.00
2022-09-26T11:23:58.220Z,16.55
2022-09-26T11:26:37.632Z,16.26
2022-09-26T11:29:24.936Z,15.90
2022-09-26T11:32:26.257Z,15.76
2022-09-26T11:35:02.480Z,15.68
2022-09-26T11:37:50.806Z,15.66
2022-09-26T11:40:24.878Z,15.76
2022-09-26T11:43:03.280Z,16.04
2022-09-26T11:45:47.609Z,16.61
2022-09-26T11:48:52.828Z,17.25
2022-09-26T11:51:57.436Z,17.82
2022-09-26T11:55:17.794Z,18.10
2022-09-26T11:57:53.805Z,18.22
2022-09-26T12:00:27.451Z,18.48
2022-09-26T12:03:05.739Z,18.70
2022-09-26T12:05:39.591Z,18.97
2022-09-26T12:08:32.584Z,19.15
2022-09-26T12:11:15.418Z,19.11
2022-09-26T12:14:17.450Z,19.06
2022-09-26T12:17:04.531Z,19.36
2022-09-26T12:19:36.371Z,19.62
2022-09-26T12:22:36.081Z,19.82
2022-09-26T12:25:22.144Z,20.07
2022-09-26T12:28:00.714Z,20.32
2022-09-26T12:30:33.622Z,20.29
2022-09-26T12:33:08.711Z,19.93
2022-09-26T12:35:52.613Z,19.65
2022-09-26T12:38:44.430Z,19.42
2022-09-26T12:41:25.212Z,19.20
2022-09-26T12:44:22.633Z,19.06
2022-09-26T12:46:58.666Z,18.93
2022-09-26T12:49:35.100Z,18.84
2022-09-26T12:52:27.760Z,18.56
2022-09-26T12:55:03.027Z,18.45
2022-09-26T12:58:09.381Z,18.17
2022-09-26T13:01:09.476Z,18.05
2022-09-26T13:03:53.887Z,18.09
2022-09-26T13:06:29.408Z,18.22
2022-09-26T13:09:53.027Z,18.43
2022-09-26T13:12:45.711Z,18.56
2022-09-26T13:15:35.459Z,18.54
2022-09-26T13:18:17.443Z,18.45
2022-09-26T13:20:49.296Z,18.33
2022-09-26T13:23:36.362Z,18.16
2022-09-26T13:26:09.736Z,18.05
2022-09-26T13:29:06.502Z,17.80
2022-09-26T13:31:41.000Z,17.69
2022-09-26T13:34:34.675Z,17.66
2022-09-26T13:37:04.313Z,17.60
2022-09-26T13:39:35.010Z,17.60
2022-09-26T13:42:26.177Z,17.71
2022-09-26T13:45:22.155Z,17.88
2022-09-26T13:48:12.942Z,17.95
2022-09-26T13:51:02.554Z,17.97
2022-09-26T13:53:50.089Z,18.03
2022-09-26T13:56:36.218Z,18.00
2022-09-26T13:59:26.067Z,17.96
2022-09-26T14:02:23.399Z,17.92
2022-09-26T14:05:18.914Z,17.90
2022-09-26T14:08:11.465Z,17.94
2022-09-26T14:10:40.685Z,17.96
2022-09-26T14:13:10.126Z,18.05
2022-09-26T14:15:48.737Z,18.11
2022-09-26T14:18:48.664Z,18.20
2022-09-26T14:21:33.517Z,18.28
2022-09-26T14:24:25.855Z,18.37
2022-09-26T14:27:10.402Z,18.37
2022-09-26T14:29:49.275Z,18.34
2022-09-26T14:32:23.372Z,18.20
2022-09-26T14:34:59.962Z,18.03
2022-09-26T14:37:40.065Z,17.82
2022-09-26T14:40:09.457Z,17.98
2022-09-26T14:42:49.944Z,18.00
2022-09-26T14:45:16.597Z,18.00
2022-09-26T14:47:50.227Z,17.84
2022-09-26T14:50:25.916Z,17.95
2022-09-26T14:52:55.058Z,17.91
2022-09-26T14:55:21.823Z,17.90
2022-09-26T14:57:48.652Z,17.86
2022-09-26T15:00:35.758Z,17.83
2022-09-26T15:03:07.602Z,17.78
2022-09-26T15:05:34.757Z,17.73
2022-09-26T15:08:01.575Z,17.64
2022-09-26T15:10:42.462Z,17.51
2022-09-26T15:13:20.241Z,17.50
2022-09-26T15:15:56.324Z,17.44
2022-09-26T15:18:39.419Z,17.38
2022-09-26T15:21:33.158Z,17.36
2022-09-26T15:24:02.707Z,17.38
2022-09-26T15:26:36.025Z,17.39
2022-09-26T15:29:06.217Z,17.41
2022-09-26T15:31:44.398Z,17.36
2022-09-26T15:34:16.445Z,17.26
2022-09-26T15:36:45.339Z,17.22
2022-09-26T15:39:30.130Z,17.15
2022-09-26T15:42:16.306Z,17.11
2022-09-26T15:44:48.541Z,17.05
2022-09-26T15:47:41.126Z,16.93
2022-09-26T15:50:17.370Z,16.78
2022-09-26T15:52:49.370Z,16.75
2022-09-26T15:55:19.658Z,16.66
2022-09-26T15:57:48.793Z,16.60
2022-09-26T16:00:16.144Z,16.47
2022-09-26T16:02:43.389Z,16.39
2022-09-26T16:05:13.033Z,16.28
2022-09-26T16:07:41.858Z,16.20
2022-09-26T16:10:21.397Z,16.14
2022-09-26T16:12:48.042Z,16.11
2022-09-26T16:15:18.575Z,16.00
2022-09-26T16:17:53.659Z,15.91
2022-09-26T16:20:20.872Z,15.86
2022-09-26T16:22:49.332Z,15.81
2022-09-26T16:25:15.777Z,15.79
2022-09-26T16:27:42.578Z,15.73
2022-09-26T16:30:21.750Z,15.71
2022-09-26T16:32:48.255Z,15.69
2022-09-26T16:35:23.847Z,15.64
2022-09-26T16:37:59.499Z,15.61
2022-09-26T16:40:34.618Z,15.59
2022-09-26T16:43:14.544Z,15.57
2022-09-26T16:45:51.778Z,15.55
2022-09-26T16:48:43.347Z,15.53
2022-09-26T16:51:16.568Z,15.49
2022-09-26T16:53:45.794Z,15.51
2022-09-26T16:56:15.777Z,15.47
2022-09-26T16:58:48.849Z,15.49
2022-09-26T17:01:34.815Z,15.42
2022-09-26T17:04:01.847Z,15.39
2022-09-26T17:06:28.383Z,15.34
2022-09-26T17:08:56.511Z,15.29
2022-09-26T17:11:23.768Z,15.23
2022-09-26T17:13:50.338Z,15.18
2022-09-26T17:16:17.127Z,15.13
2022-09-26T17:18:44.862Z,15.07
2022-09-26T17:21:14.718Z,14.94
2022-09-26T17:23:42.459Z,14.93
2022-09-26T17:26:18.524Z,14.89
2022-09-26T17:28:45.571Z,14.85
2022-09-26T17:31:19.190Z,14.80
2022-09-26T17:33:47.325Z,14.76
2022-09-26T17:36:26.071Z,14.74
2022-09-26T17:38:53.427Z,14.71
2022-09-26T17:41:20.103Z,14.68
2022-09-26T17:43:46.592Z,14.64
2022-09-26T17:46:15.756Z,14.62
2022-09-26T17:48:43.999Z,14.48
2022-09-26T17:51:14.380Z,14.57
2022-09-26T17:53:50.632Z,14.55
2022-09-26T17:56:18.973Z,14.53
2022-09-26T17:58:47.019Z,14.50
2022-09-26T18:01:30.179Z,14.46
2022-09-26T18:04:00.931Z,14.35
2022-09-26T18:06:29.929Z,14.43
2022-09-26T18:08:59.614Z,14.43
2022-09-26T18:11:27.073Z,14.39
2022-09-26T18:13:55.250Z,14.36
2022-09-26T18:16:23.272Z,14.26
2022-09-26T18:18:50.409Z,14.35
2022-09-26T18:21:18.810Z,14.32
2022-09-26T18:23:56.718Z,14.25
2022-09-26T18:26:30.876Z,14.27
2022-09-26T18:28:59.107Z,14.27
2022-09-26T18:31:30.993Z,14.25
2022-09-26T18:34:01.016Z,14.13
2022-09-26T18:36:29.666Z,14.18
2022-09-26T18:38:56.142Z,14.16
2022-09-26T18:41:25.057Z,14.14
2022-09-26T18:43:54.020Z,14.12
2022-09-26T18:46:22.846Z,14.10
2022-09-26T18:48:50.542Z,14.08
2022-09-26T18:51:17.988Z,14.07
2022-09-26T18:53:44.757Z,14.08
2022-09-26T18:56:29.957Z,14.09
2022-09-26T18:58:57.490Z,14.08
2022-09-26T19:01:30.900Z,14.04
2022-09-26T19:04:00.466Z,14.01
2022-09-26T19:06:36.797Z,14.01
2022-09-26T19:09:11.479Z,14.00
2022-09-26T19:11:38.065Z,14.00
2022-09-26T19:14:19.956Z,14.01
2022-09-26T19:16:48.318Z,13.99
2022-09-26T19:19:15.559Z,13.99
2022-09-26T19:21:59.916Z,13.98
2022-09-26T19:24:48.273Z,13.97
2022-09-26T19:27:18.516Z,13.97
2022-09-26T19:29:53.943Z,13.95
2022-09-26T19:32:32.120Z,13.96
2022-09-26T19:35:20.466Z,13.91
2022-09-26T19:37:47.097Z,13.92
2022-09-26T19:40:15.520Z,13.91
2022-09-26T19:42:42.470Z,13.84
2022-09-26T19:45:13.520Z,13.88
2022-09-26T19:47:44.933Z,13.86
2022-09-26T19:50:20.451Z,13.89
2022-09-26T19:52:48.319Z,13.89
2022-09-26T19:55:17.874Z,13.80
2022-09-26T19:57:44.410Z,13.89
2022-09-26T20:00:12.244Z,13.88
2022-09-26T20:02:39.256Z,13.82
2022-09-26T20:05:17.247Z,13.83
2022-09-26T20:07:44.524Z,13.81
2022-09-26T20:10:20.028Z,13.75
2022-09-26T20:12:48.397Z,13.75
2022-09-26T20:15:16.683Z,13.67
2022-09-26T20:17:45.495Z,13.72
2022-09-26T20:20:22.102Z,13.68
2022-09-26T20:22:51.072Z,13.68
2022-09-26T20:25:26.603Z,13.68
2022-09-26T20:27:54.305Z,13.58
2022-09-26T20:30:39.807Z,13.49
2022-09-26T20:33:06.805Z,13.48
2022-09-26T20:35:40.033Z,13.55
2022-09-26T20:38:12.848Z,13.58
2022-09-26T20:40:41.470Z,13.56
2022-09-26T20:43:14.371Z,13.53
2022-09-26T20:45:44.041Z,13.52
2022-09-26T20:48:20.598Z,13.48
2022-09-26T20:50:48.432Z,13.45
2022-09-26T20:53:23.775Z,13.42
2022-09-26T20:55:52.210Z,13.42
2022-09-26T20:58:19.115Z,13.42
2022-09-26T21:00:46.108Z,13.29
2022-09-26T21:03:15.894Z,13.39
2022-09-26T21:05:43.333Z,13.36
2022-09-26T21:08:25.138Z,13.35
2022-09-26T21:10:51.773Z,13.30
2022-09-26T21:13:18.219Z,13.29
2022-09-26T21:15:44.837Z,13.31
2022-09-26T21:18:24.513Z,13.25
2022-09-26T21:20:52.393Z,13.26
2022-09-26T21:23:55.218Z,13.23
2022-09-26T21:26:27.758Z,13.21
2022-09-26T21:28:55.411Z,13.25
2022-09-26T21:31:28.705Z,13.25
2022-09-26T21:33:58.107Z,13.24
2022-09-26T21:36:26.559Z,13.24
2022-09-26T21:38:55.576Z,13.24
2022-09-26T21:41:23.559Z,13.25
2022-09-26T21:43:58.787Z,13.22
2022-09-26T21:46:25.862Z,13.21
2022-09-26T21:48:53.270Z,13.20
2022-09-26T21:51:22.367Z,13.21
2022-09-26T21:53:56.447Z,13.18
2022-09-26T21:56:28.918Z,13.18
2022-09-26T21:58:56.507Z,13.19
2022-09-26T22:01:23.415Z,13.16
2022-09-26T22:03:49.974Z,13.16
2022-09-26T22:06:16.487Z,13.15
2022-09-26T22:08:43.321Z,13.14
2022-09-26T22:11:10.020Z,13.14
2022-09-26T22:13:37.691Z,13.11
2022-09-26T22:16:06.519Z,13.09
2022-09-26T22:18:34.508Z,13.12
2022-09-26T22:21:04.734Z,13.12
2022-09-26T22:23:35.080Z,13.08
2022-09-26T22:26:02.135Z,13.07
2022-09-26T22:28:29.220Z,13.14
2022-09-26T22:30:56.376Z,13.03
2022-09-26T22:33:23.147Z,13.15
2022-09-26T22:35:50.420Z,13.19
2022-09-26T22:38:18.247Z,13.18
2022-09-26T22:40:45.962Z,13.18
2022-09-26T22:43:12.757Z,13.17
2022-09-26T22:45:41.625Z,13.05
2022-09-26T22:48:08.169Z,13.12
2022-09-26T22:50:34.634Z,13.15
2022-09-26T22:53:01.331Z,13.19
2022-09-26T22:55:27.902Z,13.19
2022-09-26T22:57:54.347Z,13.20
2022-09-26T23:00:20.838Z,13.22
2022-09-26T23:02:47.360Z,13.22
2022-09-26T23:05:13.970Z,13.24
2022-09-26T23:07:40.409Z,13.23
2022-09-26T23:10:07.547Z,13.19
2022-09-26T23:12:34.024Z,13.19
2022-09-26T23:15:00.750Z,13.21
2022-09-26T23:17:27.365Z,13.16
2022-09-26T23:19:53.847Z,13.16
2022-09-26T23:22:20.345Z,13.11
2022-09-26T23:24:46.831Z,13.14
2022-09-26T23:27:13.338Z,13.13
2022-09-26T23:29:41.262Z,13.05
2022-09-26T23:32:07.721Z,13.11
2022-09-26T23:34:34.161Z,13.09
2022-09-26T23:37:00.599Z,13.10
2022-09-26T23:39:27.087Z,13.10
2022-09-26T23:41:53.843Z,13.14
2022-09-26T23:44:20.383Z,13.09
2022-09-26T23:46:46.825Z,13.05
2022-09-26T23:49:13.381Z,13.05
2022-09-26T23:51:39.899Z,13.05
2022-09-26T23:54:06.718Z,13.07
2022-09-26T23:56:33.160Z,13.07
2022-09-26T23:58:59.603Z,13.07
